createdAt,value
2019-01-26T00:00:01.762Z,0
2019-01-26T00:01:11.704Z,0
2019-01-26T00:02:21.403Z,0
2019-01-26T00:03:31.337Z,0
2019-01-26T00:04:41.025Z,0
2019-01-26T00:05:50.712Z,0
2019-01-26T00:07:00.131Z,0
2019-01-26T00:08:10.086Z,0
2019-01-26T00:09:19.514Z,0
2019-01-26T00:10:29.461Z,0
2019-01-26T00:11:38.906Z,0
2019-01-26T00:12:48.592Z,0
2019-01-26T00:13:58.521Z,0
2019-01-26T00:15:08.454Z,0
2019-01-26T00:16:23.518Z,0
2019-01-26T00:17:33.204Z,0
2019-01-26T00:18:43.132Z,0
2019-01-26T00:19:53.064Z,0
2019-01-26T00:21:02.762Z,0
2019-01-26T00:22:12.440Z,0
2019-01-26T00:23:22.116Z,0
2019-01-26T00:24:32.053Z,0
2019-01-26T00:25:41.731Z,0
2019-01-26T00:26:51.657Z,0
2019-01-26T00:28:01.594Z,0
2019-01-26T00:29:11.533Z,0
2019-01-26T00:30:21.464Z,0
2019-01-26T00:31:31.422Z,0
2019-01-26T00:32:41.312Z,0
2019-01-26T00:33:52.965Z,0
2019-01-26T00:35:02.635Z,0
2019-01-26T00:36:12.323Z,0
2019-01-26T00:37:22.304Z,0
2019-01-26T00:38:32.233Z,0
2019-01-26T00:39:42.370Z,0
2019-01-26T00:40:52.306Z,0
2019-01-26T00:42:02.254Z,0
2019-01-26T00:43:12.205Z,0
2019-01-26T00:44:21.890Z,0
2019-01-26T00:45:31.845Z,0
2019-01-26T00:46:41.530Z,0
2019-01-26T00:47:51.464Z,0
2019-01-26T00:49:01.138Z,0
2019-01-26T00:50:10.824Z,0
2019-01-26T00:51:24.449Z,0
2019-01-26T00:52:34.399Z,0
2019-01-26T00:53:44.332Z,0
2019-01-26T00:54:54.280Z,0
2019-01-26T00:56:03.721Z,0
2019-01-26T00:57:13.409Z,0
2019-01-26T00:58:26.167Z,0
2019-01-26T00:59:37.079Z,0
2019-01-26T01:00:47.011Z,0
2019-01-26T01:01:56.709Z,0
2019-01-26T01:03:06.149Z,0
2019-01-26T01:04:15.853Z,0
2019-01-26T01:05:25.790Z,0
2019-01-26T01:06:35.747Z,0
2019-01-26T01:07:45.908Z,0
2019-01-26T01:08:55.654Z,0
2019-01-26T01:10:05.792Z,0
2019-01-26T01:11:15.472Z,0
2019-01-26T01:12:25.165Z,0
2019-01-26T01:13:35.094Z,0
2019-01-26T01:14:44.774Z,0
2019-01-26T01:15:54.721Z,0
2019-01-26T01:17:04.646Z,0
2019-01-26T01:18:14.331Z,0
2019-01-26T01:19:24.260Z,0
2019-01-26T01:20:33.940Z,0
2019-01-26T01:21:43.689Z,0
2019-01-26T01:22:53.404Z,0
2019-01-26T01:24:03.342Z,0
2019-01-26T01:25:13.288Z,0
2019-01-26T01:26:23.360Z,0
2019-01-26T01:27:33.739Z,0
2019-01-26T01:28:43.677Z,0
2019-01-26T01:29:53.621Z,0
2019-01-26T01:31:03.555Z,0
2019-01-26T01:32:13.495Z,0
2019-01-26T01:33:23.189Z,0
2019-01-26T01:34:32.868Z,0
2019-01-26T01:35:42.822Z,0
2019-01-26T01:36:52.753Z,0
2019-01-26T01:38:02.684Z,0
2019-01-26T01:39:12.614Z,0
2019-01-26T01:40:22.539Z,0
2019-01-26T01:41:32.467Z,0
2019-01-26T01:42:42.407Z,0
2019-01-26T01:43:52.085Z,0
2019-01-26T01:45:02.016Z,0
2019-01-26T01:46:11.446Z,0
2019-01-26T01:47:21.387Z,0
2019-01-26T01:48:31.317Z,0
2019-01-26T01:49:41.277Z,0
2019-01-26T01:50:51.203Z,0
2019-01-26T01:52:00.890Z,0
2019-01-26T01:53:10.565Z,0
2019-01-26T01:54:20.503Z,0
2019-01-26T01:55:30.441Z,0
2019-01-26T01:56:40.387Z,0
2019-01-26T01:57:50.062Z,0
2019-01-26T01:58:59.988Z,0
2019-01-26T02:00:09.675Z,0
2019-01-26T02:01:19.798Z,0
2019-01-26T02:02:29.464Z,0
2019-01-26T02:03:39.385Z,0
2019-01-26T02:04:49.362Z,0
2019-01-26T02:05:59.304Z,0
2019-01-26T02:07:09.222Z,0
2019-01-26T02:08:19.156Z,0
2019-01-26T02:09:29.089Z,0
2019-01-26T02:10:38.515Z,0
2019-01-26T02:11:48.453Z,0
2019-01-26T02:12:58.377Z,0
2019-01-26T02:14:08.051Z,0
2019-01-26T02:15:17.748Z,0
2019-01-26T02:16:27.436Z,0
2019-01-26T02:17:37.381Z,0
2019-01-26T02:18:47.323Z,0
2019-01-26T02:19:57.015Z,0
2019-01-26T02:21:07.434Z,0
2019-01-26T02:22:17.371Z,0
2019-01-26T02:23:27.416Z,0
2019-01-26T02:24:37.343Z,0
2019-01-26T02:25:47.298Z,0
2019-01-26T02:26:57.001Z,0
2019-01-26T02:28:06.935Z,0
2019-01-26T02:29:16.866Z,0
2019-01-26T02:30:27.290Z,0
2019-01-26T02:31:37.232Z,0
2019-01-26T02:32:46.922Z,0
2019-01-26T02:33:56.377Z,0
2019-01-26T02:35:06.324Z,0
2019-01-26T02:36:16.862Z,0
2019-01-26T02:37:26.803Z,0
2019-01-26T02:38:36.515Z,0
2019-01-26T02:39:46.240Z,0
2019-01-26T02:40:57.170Z,0
2019-01-26T02:42:07.121Z,0
2019-01-26T02:43:16.803Z,0
2019-01-26T02:44:26.494Z,0
2019-01-26T02:45:36.183Z,0
2019-01-26T02:46:45.861Z,0
2019-01-26T02:47:55.806Z,0
2019-01-26T02:49:05.749Z,0
2019-01-26T02:50:15.433Z,0
2019-01-26T02:51:25.104Z,0
2019-01-26T02:52:35.068Z,0
2019-01-26T02:53:44.754Z,0
2019-01-26T02:54:54.429Z,0
2019-01-26T02:56:04.605Z,0
2019-01-26T02:57:14.282Z,0
2019-01-26T02:58:24.213Z,0
2019-01-26T02:59:34.140Z,0
2019-01-26T03:00:44.077Z,0
2019-01-26T03:01:53.763Z,0
2019-01-26T03:03:03.713Z,0
2019-01-26T03:04:13.651Z,0
2019-01-26T03:05:23.373Z,0
2019-01-26T03:06:33.313Z,0
2019-01-26T03:07:43.261Z,0
2019-01-26T03:08:52.949Z,0
2019-01-26T03:10:02.129Z,0
2019-01-26T03:11:11.802Z,0
2019-01-26T03:12:21.847Z,0
2019-01-26T03:13:31.527Z,0
2019-01-26T03:14:41.474Z,0
2019-01-26T03:15:51.411Z,0
2019-01-26T03:17:08.709Z,0
2019-01-26T03:18:18.642Z,0
2019-01-26T03:19:28.581Z,0
2019-01-26T03:20:38.534Z,0
2019-01-26T03:21:48.476Z,0
2019-01-26T03:22:58.451Z,0
2019-01-26T03:24:08.991Z,0
2019-01-26T03:25:18.698Z,0
2019-01-26T03:26:28.626Z,0
2019-01-26T03:27:38.559Z,0
2019-01-26T03:28:48.863Z,0
2019-01-26T03:29:58.810Z,0
2019-01-26T03:31:08.290Z,0
2019-01-26T03:32:18.050Z,0
2019-01-26T03:33:28.253Z,0
2019-01-26T03:34:37.949Z,0
2019-01-26T03:35:47.643Z,0
2019-01-26T03:36:56.833Z,0
2019-01-26T03:38:06.540Z,0
2019-01-26T03:39:16.487Z,0
2019-01-26T03:40:26.183Z,0
2019-01-26T03:41:36.352Z,0
2019-01-26T03:42:46.317Z,0
2019-01-26T03:43:56.268Z,0
2019-01-26T03:45:05.973Z,0
2019-01-26T03:46:15.910Z,0
2019-01-26T03:47:25.590Z,0
2019-01-26T03:48:35.620Z,0
2019-01-26T03:49:45.304Z,0
2019-01-26T03:50:55.259Z,0
2019-01-26T03:52:05.203Z,0
2019-01-26T03:53:15.162Z,0
2019-01-26T03:54:24.862Z,0
2019-01-26T03:55:34.548Z,0
2019-01-26T03:56:44.476Z,0
2019-01-26T03:57:54.430Z,0
2019-01-26T03:59:04.380Z,0
2019-01-26T04:00:14.099Z,0
2019-01-26T04:01:23.796Z,0
2019-01-26T04:02:33.758Z,0
2019-01-26T04:03:43.721Z,0
2019-01-26T04:04:53.674Z,0
2019-01-26T04:06:03.628Z,0
2019-01-26T04:07:13.574Z,0
2019-01-26T04:08:23.505Z,0
2019-01-26T04:09:33.197Z,0
2019-01-26T04:10:43.118Z,0
2019-01-26T04:11:53.077Z,0
2019-01-26T04:13:02.808Z,0
2019-01-26T04:14:12.491Z,0
2019-01-26T04:15:21.945Z,0
2019-01-26T04:16:31.627Z,0
2019-01-26T04:17:41.569Z,0
2019-01-26T04:18:51.505Z,0
2019-01-26T04:20:01.465Z,0
2019-01-26T04:21:11.453Z,0
2019-01-26T04:22:20.901Z,0
2019-01-26T04:23:30.612Z,0
2019-01-26T04:24:40.504Z,0
2019-01-26T04:25:50.446Z,0
2019-01-26T04:27:00.368Z,0
2019-01-26T04:28:09.798Z,0
2019-01-26T04:29:21.048Z,0
2019-01-26T04:30:30.240Z,0
2019-01-26T04:31:40.424Z,0
2019-01-26T04:32:50.110Z,0
2019-01-26T04:33:59.829Z,0
2019-01-26T04:35:09.784Z,0
2019-01-26T04:36:19.492Z,0
2019-01-26T04:37:29.449Z,0
2019-01-26T04:38:38.896Z,0
2019-01-26T04:39:48.840Z,0
2019-01-26T04:40:58.562Z,0
2019-01-26T04:42:08.513Z,0
2019-01-26T04:43:18.474Z,0
2019-01-26T04:44:28.170Z,0
2019-01-26T04:45:37.868Z,0
2019-01-26T04:46:48.006Z,0
2019-01-26T04:47:57.713Z,0
2019-01-26T04:49:07.727Z,0
2019-01-26T04:50:17.702Z,0
2019-01-26T04:51:27.400Z,0
2019-01-26T04:52:37.332Z,0
2019-01-26T04:53:47.284Z,0
2019-01-26T04:54:57.836Z,0
2019-01-26T04:56:07.855Z,0
2019-01-26T04:57:17.800Z,0
2019-01-26T04:58:27.737Z,0
2019-01-26T04:59:37.687Z,0
2019-01-26T05:00:47.395Z,0
2019-01-26T05:01:57.341Z,0
2019-01-26T05:03:07.288Z,0
2019-01-26T05:04:16.746Z,0
2019-01-26T05:05:26.436Z,0
2019-01-26T05:06:36.390Z,0
2019-01-26T05:07:46.096Z,0
2019-01-26T05:08:55.792Z,0
2019-01-26T05:10:05.738Z,0
2019-01-26T05:11:15.168Z,0
2019-01-26T05:12:25.126Z,0
2019-01-26T05:13:35.077Z,0
2019-01-26T05:14:45.038Z,0
2019-01-26T05:15:54.736Z,0
2019-01-26T05:17:04.699Z,0
2019-01-26T05:18:14.479Z,0
2019-01-26T05:19:24.420Z,0
2019-01-26T05:20:34.108Z,0
2019-01-26T05:21:44.057Z,0
2019-01-26T05:22:53.762Z,0
2019-01-26T05:24:03.455Z,0
2019-01-26T05:25:13.393Z,0
2019-01-26T05:26:23.085Z,0
2019-01-26T05:27:33.034Z,0
2019-01-26T05:28:42.972Z,0
2019-01-26T05:29:52.672Z,0
2019-01-26T05:31:02.641Z,0
2019-01-26T05:32:12.337Z,0
2019-01-26T05:33:21.787Z,0
2019-01-26T05:34:31.736Z,0
2019-01-26T05:35:41.663Z,0
2019-01-26T05:36:51.355Z,0
2019-01-26T05:38:01.351Z,0
2019-01-26T05:39:11.303Z,0
2019-01-26T05:40:20.998Z,0
2019-01-26T05:41:30.955Z,0
2019-01-26T05:42:40.888Z,0
2019-01-26T05:43:50.840Z,0
2019-01-26T05:45:00.775Z,0
2019-01-26T05:46:10.726Z,0
2019-01-26T05:47:20.672Z,0
2019-01-26T05:48:30.621Z,0
2019-01-26T05:49:40.566Z,0
2019-01-26T05:50:50.519Z,0
2019-01-26T05:51:59.959Z,0
2019-01-26T05:53:09.398Z,0
2019-01-26T05:54:19.327Z,0
2019-01-26T05:55:29.273Z,0
2019-01-26T05:56:39.204Z,0
2019-01-26T05:57:49.135Z,0
2019-01-26T05:59:00.346Z,0
2019-01-26T06:00:10.276Z,0
2019-01-26T06:01:20.265Z,0
2019-01-26T06:02:29.693Z,0
2019-01-26T06:03:39.374Z,0
2019-01-26T06:04:49.053Z,0
2019-01-26T06:05:58.991Z,0
2019-01-26T06:07:08.921Z,0
2019-01-26T06:08:18.604Z,0
2019-01-26T06:09:28.545Z,0
2019-01-26T06:10:38.486Z,0
2019-01-26T06:11:48.383Z,0
2019-01-26T06:12:58.907Z,0
2019-01-26T06:14:08.989Z,0
2019-01-26T06:15:18.936Z,0
2019-01-26T06:16:28.870Z,0
2019-01-26T06:17:38.811Z,0
2019-01-26T06:18:48.489Z,0
2019-01-26T06:19:58.430Z,0
2019-01-26T06:21:08.107Z,0
2019-01-26T06:22:18.052Z,0
2019-01-26T06:23:27.992Z,0
2019-01-26T06:24:37.957Z,0
2019-01-26T06:25:47.948Z,0
2019-01-26T06:26:57.934Z,0
2019-01-26T06:28:07.885Z,0
2019-01-26T06:29:17.320Z,0
2019-01-26T06:30:26.999Z,0
2019-01-26T06:31:36.687Z,0
2019-01-26T06:32:46.630Z,0
2019-01-26T06:33:56.572Z,0
2019-01-26T06:35:06.294Z,0
2019-01-26T06:36:15.760Z,0
2019-01-26T06:37:25.447Z,0
2019-01-26T06:38:35.399Z,0
2019-01-26T06:39:45.366Z,0
2019-01-26T06:40:55.061Z,0
2019-01-26T06:42:04.746Z,0
2019-01-26T06:43:14.435Z,0
2019-01-26T06:44:23.877Z,0
2019-01-26T06:45:33.814Z,0
2019-01-26T06:46:44.321Z,0
2019-01-26T06:47:54.253Z,0
2019-01-26T06:49:04.403Z,0
2019-01-26T06:50:14.078Z,0
2019-01-26T06:51:24.020Z,0
2019-01-26T06:52:33.727Z,0
2019-01-26T06:53:43.664Z,0
2019-01-26T06:54:53.767Z,0
2019-01-26T06:56:03.701Z,0
2019-01-26T06:57:13.425Z,0
2019-01-26T06:58:23.345Z,0
2019-01-26T06:59:33.319Z,5
2019-01-26T07:00:43.279Z,5
2019-01-26T07:01:52.973Z,5
2019-01-26T07:03:02.901Z,5
2019-01-26T07:04:13.040Z,5
2019-01-26T07:05:22.961Z,5
2019-01-26T07:06:32.893Z,5
2019-01-26T07:07:42.838Z,5
2019-01-26T07:08:52.527Z,5
2019-01-26T07:10:02.615Z,5
2019-01-26T07:11:12.312Z,5
2019-01-26T07:12:22.004Z,5
2019-01-26T07:13:31.443Z,10
2019-01-26T07:14:41.128Z,10
2019-01-26T07:15:51.061Z,10
2019-01-26T07:17:01.026Z,10
2019-01-26T07:18:16.494Z,10
2019-01-26T07:19:26.429Z,10
2019-01-26T07:20:36.363Z,10
2019-01-26T07:21:45.528Z,10
2019-01-26T07:22:55.215Z,15
2019-01-26T07:24:04.641Z,15
2019-01-26T07:25:15.757Z,15
2019-01-26T07:26:25.204Z,15
2019-01-26T07:27:34.886Z,15
2019-01-26T07:28:45.213Z,15
2019-01-26T07:29:55.147Z,15
2019-01-26T07:31:06.573Z,15
2019-01-26T07:32:16.591Z,15
2019-01-26T07:33:26.269Z,15
2019-01-26T07:34:35.967Z,15
2019-01-26T07:35:45.909Z,15
2019-01-26T07:36:55.855Z,15
2019-01-26T07:38:05.300Z,20
2019-01-26T07:39:15.244Z,20
2019-01-26T07:40:25.181Z,20
2019-01-26T07:41:34.866Z,20
2019-01-26T07:42:44.560Z,20
2019-01-26T07:43:54.501Z,20
2019-01-26T07:45:04.437Z,20
2019-01-26T07:46:13.369Z,20
2019-01-26T07:47:23.098Z,25
2019-01-26T07:48:32.777Z,30
2019-01-26T07:49:42.707Z,30
2019-01-26T07:50:52.634Z,30
2019-01-26T07:52:02.362Z,30
2019-01-26T07:53:12.058Z,30
2019-01-26T07:54:22.233Z,35
2019-01-26T07:55:31.933Z,35
2019-01-26T07:56:41.375Z,35
2019-01-26T07:57:51.051Z,35
2019-01-26T07:59:00.989Z,35
2019-01-26T08:00:10.691Z,35
2019-01-26T08:01:20.627Z,40
2019-01-26T08:02:30.558Z,45
2019-01-26T08:03:40.509Z,45
2019-01-26T08:04:49.942Z,45
2019-01-26T08:05:59.883Z,45
2019-01-26T08:07:09.812Z,40
2019-01-26T08:08:19.743Z,45
2019-01-26T08:09:29.421Z,45
2019-01-26T08:10:39.110Z,50
2019-01-26T08:11:49.690Z,50
2019-01-26T08:12:59.118Z,50
2019-01-26T08:14:09.044Z,50
2019-01-26T08:15:18.732Z,50
2019-01-26T08:16:28.426Z,50
2019-01-26T08:17:38.384Z,50
2019-01-26T08:18:48.065Z,55
2019-01-26T08:19:58.044Z,55
2019-01-26T08:21:07.988Z,60
2019-01-26T08:22:17.940Z,60
2019-01-26T08:23:27.651Z,55
2019-01-26T08:24:37.354Z,55
2019-01-26T08:25:47.049Z,55
2019-01-26T08:26:56.996Z,55
2019-01-26T08:28:06.938Z,50
2019-01-26T08:29:16.376Z,50
2019-01-26T08:30:26.325Z,50
2019-01-26T08:31:36.020Z,50
2019-01-26T08:32:45.970Z,50
2019-01-26T08:33:55.648Z,50
2019-01-26T08:35:05.340Z,50
2019-01-26T08:36:15.275Z,55
2019-01-26T08:37:25.222Z,55
2019-01-26T08:38:36.064Z,60
2019-01-26T08:39:45.736Z,55
2019-01-26T08:40:55.421Z,55
2019-01-26T08:42:05.385Z,55
2019-01-26T08:43:14.842Z,50
2019-01-26T08:44:24.522Z,55
2019-01-26T08:45:34.452Z,55
2019-01-26T08:46:44.409Z,60
2019-01-26T08:47:54.371Z,65
2019-01-26T08:49:04.319Z,70
2019-01-26T08:50:14.256Z,75
2019-01-26T08:51:24.186Z,75
2019-01-26T08:52:33.906Z,75
2019-01-26T08:53:44.050Z,70
2019-01-26T08:54:53.475Z,75
2019-01-26T08:56:03.427Z,80
2019-01-26T08:57:13.113Z,75
2019-01-26T08:58:22.803Z,75
2019-01-26T08:59:32.742Z,75
2019-01-26T09:00:42.432Z,75
2019-01-26T09:01:52.377Z,70
2019-01-26T09:03:02.067Z,70
2019-01-26T09:04:12.012Z,70
2019-01-26T09:05:22.164Z,75
2019-01-26T09:06:31.867Z,80
2019-01-26T09:07:41.556Z,80
2019-01-26T09:08:51.267Z,85
2019-01-26T09:10:01.194Z,90
2019-01-26T09:11:10.878Z,90
2019-01-26T09:12:20.808Z,90
2019-01-26T09:13:30.246Z,85
2019-01-26T09:14:39.922Z,85
2019-01-26T09:15:49.880Z,85
2019-01-26T09:16:59.578Z,85
2019-01-26T09:18:09.036Z,90
2019-01-26T09:19:20.163Z,90
2019-01-26T09:20:30.103Z,90
2019-01-26T09:21:39.528Z,85
2019-01-26T09:22:49.472Z,85
2019-01-26T09:23:59.424Z,80
2019-01-26T09:25:09.113Z,75
2019-01-26T09:26:19.042Z,75
2019-01-26T09:27:29.162Z,75
2019-01-26T09:28:39.125Z,75
2019-01-26T09:29:49.818Z,75
2019-01-26T09:30:59.494Z,75
2019-01-26T09:32:09.439Z,70
2019-01-26T09:33:19.144Z,65
2019-01-26T09:34:28.569Z,60
2019-01-26T09:35:38.254Z,55
2019-01-26T09:36:48.189Z,60
2019-01-26T09:37:57.869Z,60
2019-01-26T09:39:07.806Z,55
2019-01-26T09:40:17.735Z,55
2019-01-26T09:41:27.176Z,55
2019-01-26T09:42:37.331Z,55
2019-01-26T09:43:47.274Z,55
2019-01-26T09:44:56.948Z,55
2019-01-26T09:46:06.625Z,55
2019-01-26T09:47:16.573Z,55
2019-01-26T09:48:26.258Z,55
2019-01-26T09:49:35.993Z,55
2019-01-26T09:50:45.930Z,60
2019-01-26T09:51:55.874Z,60
2019-01-26T09:53:05.819Z,60
2019-01-26T09:54:15.757Z,65
2019-01-26T09:55:25.451Z,65
2019-01-26T09:56:35.387Z,60
2019-01-26T09:57:45.323Z,65
2019-01-26T09:58:55.006Z,70
2019-01-26T10:00:04.966Z,75
2019-01-26T10:01:14.916Z,85
2019-01-26T10:02:24.596Z,90
2019-01-26T10:03:34.290Z,85
2019-01-26T10:04:44.226Z,95
2019-01-26T10:05:54.165Z,95
2019-01-26T10:07:04.100Z,115
2019-01-26T10:08:14.024Z,115
2019-01-26T10:09:23.978Z,125
2019-01-26T10:10:33.410Z,115
2019-01-26T10:11:43.396Z,125
2019-01-26T10:12:52.840Z,120
2019-01-26T10:14:02.802Z,125
2019-01-26T10:15:12.511Z,125
2019-01-26T10:16:22.319Z,125
2019-01-26T10:17:32.006Z,120
2019-01-26T10:18:41.682Z,120
2019-01-26T10:19:51.630Z,115
2019-01-26T10:21:01.310Z,110
2019-01-26T10:22:11.240Z,115
2019-01-26T10:23:21.201Z,100
2019-01-26T10:24:31.133Z,95
2019-01-26T10:25:40.813Z,90
2019-01-26T10:26:50.758Z,90
2019-01-26T10:28:00.727Z,90
2019-01-26T10:29:10.422Z,90
2019-01-26T10:30:20.368Z,90
2019-01-26T10:31:30.304Z,95
2019-01-26T10:32:39.984Z,100
2019-01-26T10:33:49.918Z,110
2019-01-26T10:34:59.848Z,100
2019-01-26T10:36:09.811Z,100
2019-01-26T10:37:19.759Z,105
2019-01-26T10:38:29.701Z,110
2019-01-26T10:39:39.649Z,110
2019-01-26T10:40:49.611Z,105
2019-01-26T10:41:59.549Z,105
2019-01-26T10:43:09.490Z,105
2019-01-26T10:44:19.178Z,95
2019-01-26T10:45:28.607Z,95
2019-01-26T10:46:38.543Z,105
2019-01-26T10:47:48.482Z,100
2019-01-26T10:49:05.334Z,105
2019-01-26T10:50:15.264Z,115
2019-01-26T10:51:25.193Z,115
2019-01-26T10:52:35.116Z,115
2019-01-26T10:53:44.557Z,120
2019-01-26T10:54:54.283Z,120
2019-01-26T10:56:04.222Z,120
2019-01-26T10:57:14.152Z,120
2019-01-26T10:58:24.084Z,125
2019-01-26T10:59:33.831Z,120
2019-01-26T11:00:43.520Z,120
2019-01-26T11:01:53.450Z,120
2019-01-26T11:03:03.383Z,130
2019-01-26T11:04:12.823Z,135
2019-01-26T11:05:22.501Z,150
2019-01-26T11:06:32.181Z,145
2019-01-26T11:07:42.130Z,145
2019-01-26T11:08:51.830Z,145
2019-01-26T11:10:01.514Z,135
2019-01-26T11:11:11.447Z,125
2019-01-26T11:12:21.142Z,115
2019-01-26T11:13:31.100Z,120
2019-01-26T11:14:41.054Z,120
2019-01-26T11:15:51.001Z,120
2019-01-26T11:17:00.928Z,115
2019-01-26T11:18:10.610Z,115
2019-01-26T11:19:20.320Z,115
2019-01-26T11:20:30.261Z,115
2019-01-26T11:21:39.972Z,125
2019-01-26T11:22:49.899Z,125
2019-01-26T11:23:59.871Z,130
2019-01-26T11:25:09.821Z,150
2019-01-26T11:26:19.816Z,165
2019-01-26T11:27:29.758Z,180
2019-01-26T11:28:39.699Z,195
2019-01-26T11:29:49.636Z,200
2019-01-26T11:30:59.632Z,190
2019-01-26T11:32:09.576Z,190
2019-01-26T11:33:19.280Z,185
2019-01-26T11:34:29.238Z,190
2019-01-26T11:35:39.186Z,190
2019-01-26T11:36:49.136Z,205
2019-01-26T11:37:59.075Z,205
2019-01-26T11:39:08.768Z,205
2019-01-26T11:40:18.719Z,195
2019-01-26T11:41:28.408Z,195
2019-01-26T11:42:38.107Z,195
2019-01-26T11:43:48.052Z,190
2019-01-26T11:44:57.984Z,190
2019-01-26T11:46:07.738Z,185
2019-01-26T11:47:17.421Z,180
2019-01-26T11:48:26.848Z,175
2019-01-26T11:49:36.767Z,175
2019-01-26T11:50:46.718Z,170
2019-01-26T11:51:56.652Z,165
2019-01-26T11:53:06.095Z,160
2019-01-26T11:54:16.023Z,150
2019-01-26T11:55:26.579Z,155
2019-01-26T11:56:36.432Z,160
2019-01-26T11:57:46.367Z,175
2019-01-26T11:58:56.296Z,170
2019-01-26T12:00:06.239Z,165
2019-01-26T12:01:15.931Z,170
2019-01-26T12:02:32.404Z,160
2019-01-26T12:03:42.108Z,170
2019-01-26T12:04:51.810Z,170
2019-01-26T12:06:01.766Z,160
2019-01-26T12:07:11.216Z,165
2019-01-26T12:08:21.166Z,155
2019-01-26T12:09:30.603Z,150
2019-01-26T12:10:40.544Z,155
2019-01-26T12:11:50.488Z,145
2019-01-26T12:13:00.168Z,145
2019-01-26T12:14:09.869Z,140
2019-01-26T12:15:19.570Z,145
2019-01-26T12:16:36.161Z,155
2019-01-26T12:17:45.916Z,170
2019-01-26T12:18:55.879Z,180
2019-01-26T12:20:05.833Z,190
2019-01-26T12:21:15.543Z,185
2019-01-26T12:22:25.240Z,180
2019-01-26T12:23:34.936Z,180
2019-01-26T12:24:44.628Z,200
2019-01-26T12:25:54.619Z,185
2019-01-26T12:27:04.559Z,175
2019-01-26T12:28:14.500Z,160
2019-01-26T12:29:24.447Z,150
2019-01-26T12:30:35.920Z,150
2019-01-26T12:31:45.871Z,135
2019-01-26T12:32:55.825Z,125
2019-01-26T12:34:05.528Z,120
2019-01-26T12:35:15.485Z,110
2019-01-26T12:36:25.464Z,110
2019-01-26T12:37:35.378Z,110
2019-01-26T12:38:45.322Z,115
2019-01-26T12:39:55.260Z,115
2019-01-26T12:41:05.205Z,115
2019-01-26T12:42:15.159Z,120
2019-01-26T12:43:25.091Z,120
2019-01-26T12:44:34.803Z,120
2019-01-26T12:45:44.503Z,120
2019-01-26T12:46:54.443Z,125
2019-01-26T12:48:04.393Z,140
2019-01-26T12:49:14.089Z,155
2019-01-26T12:50:23.786Z,155
2019-01-26T12:51:33.489Z,165
2019-01-26T12:52:43.189Z,175
2019-01-26T12:53:53.136Z,160
2019-01-26T12:55:03.096Z,145
2019-01-26T12:56:13.037Z,145
2019-01-26T12:57:22.975Z,135
2019-01-26T12:58:32.926Z,130
2019-01-26T12:59:42.621Z,135
2019-01-26T13:00:52.307Z,140
2019-01-26T13:02:01.758Z,145
2019-01-26T13:03:11.705Z,145
2019-01-26T13:04:21.409Z,150
2019-01-26T13:05:31.116Z,150
2019-01-26T13:06:40.797Z,150
2019-01-26T13:07:50.491Z,155
2019-01-26T13:08:59.926Z,155
2019-01-26T13:10:09.862Z,155
2019-01-26T13:11:19.809Z,160
2019-01-26T13:12:29.767Z,160
2019-01-26T13:13:39.708Z,150
2019-01-26T13:14:49.142Z,150
2019-01-26T13:15:59.066Z,150
2019-01-26T13:17:08.770Z,140
2019-01-26T13:18:18.715Z,135
2019-01-26T13:19:28.655Z,130
2019-01-26T13:20:38.615Z,135
2019-01-26T13:21:48.545Z,145
2019-01-26T13:22:58.228Z,155
2019-01-26T13:24:08.184Z,160
2019-01-26T13:25:17.872Z,150
2019-01-26T13:26:27.819Z,155
2019-01-26T13:27:37.769Z,155
2019-01-26T13:28:47.489Z,155
2019-01-26T13:29:57.455Z,150
2019-01-26T13:31:07.399Z,140
2019-01-26T13:32:17.372Z,135
2019-01-26T13:33:27.395Z,130
2019-01-26T13:34:37.442Z,130
2019-01-26T13:35:47.386Z,125
2019-01-26T13:36:57.089Z,120
2019-01-26T13:38:06.769Z,120
2019-01-26T13:39:16.451Z,120
2019-01-26T13:40:26.369Z,120
2019-01-26T13:41:36.322Z,115
2019-01-26T13:42:46.278Z,115
2019-01-26T13:43:56.223Z,110
2019-01-26T13:45:05.677Z,110
2019-01-26T13:46:15.633Z,110
2019-01-26T13:47:25.083Z,105
2019-01-26T13:48:35.021Z,100
2019-01-26T13:49:51.207Z,95
2019-01-26T13:51:01.154Z,100
2019-01-26T13:52:11.090Z,100
2019-01-26T13:53:21.027Z,110
2019-01-26T13:54:30.723Z,120
2019-01-26T13:55:40.663Z,120
2019-01-26T13:56:50.653Z,120
2019-01-26T13:58:00.095Z,125
2019-01-26T13:59:09.798Z,135
2019-01-26T14:00:19.735Z,130
2019-01-26T14:01:29.441Z,140
2019-01-26T14:02:38.895Z,150
2019-01-26T14:03:48.585Z,155
2019-01-26T14:04:58.559Z,160
2019-01-26T14:06:08.507Z,155
2019-01-26T14:07:18.467Z,145
2019-01-26T14:08:28.417Z,135
2019-01-26T14:09:38.381Z,125
2019-01-26T14:10:48.325Z,125
2019-01-26T14:11:58.257Z,125
2019-01-26T14:13:08.205Z,120
2019-01-26T14:14:17.911Z,115
2019-01-26T14:15:27.602Z,110
2019-01-26T14:16:37.537Z,105
2019-01-26T14:17:47.466Z,100
2019-01-26T14:18:57.151Z,105
2019-01-26T14:20:07.108Z,100
2019-01-26T14:21:17.043Z,100
2019-01-26T14:22:26.495Z,100
2019-01-26T14:23:36.191Z,95
2019-01-26T14:24:46.146Z,90
2019-01-26T14:25:56.082Z,85
2019-01-26T14:27:06.020Z,80
2019-01-26T14:28:15.716Z,80
2019-01-26T14:29:25.662Z,80
2019-01-26T14:30:35.611Z,80
2019-01-26T14:31:45.334Z,80
2019-01-26T14:33:01.739Z,75
2019-01-26T14:34:11.184Z,80
2019-01-26T14:35:21.127Z,75
2019-01-26T14:36:31.085Z,75
2019-01-26T14:37:41.051Z,75
2019-01-26T14:38:50.996Z,75
2019-01-26T14:40:00.683Z,75
2019-01-26T14:41:10.632Z,75
2019-01-26T14:42:20.575Z,70
2019-01-26T14:43:30.522Z,65
2019-01-26T14:44:40.449Z,60
2019-01-26T14:45:50.170Z,55
2019-01-26T14:47:00.111Z,55
2019-01-26T14:48:09.827Z,50
2019-01-26T14:49:19.027Z,50
2019-01-26T14:50:28.961Z,45
2019-01-26T14:51:38.390Z,45
2019-01-26T14:52:48.319Z,45
2019-01-26T14:53:58.533Z,45
2019-01-26T14:55:08.227Z,45
2019-01-26T14:56:17.925Z,45
2019-01-26T14:57:27.889Z,45
2019-01-26T14:58:37.590Z,45
2019-01-26T14:59:47.263Z,40
2019-01-26T15:00:56.951Z,40
2019-01-26T15:02:06.881Z,40
2019-01-26T15:03:16.846Z,35
2019-01-26T15:04:26.786Z,30
2019-01-26T15:05:36.467Z,30
2019-01-26T15:06:46.422Z,30
2019-01-26T15:07:56.101Z,30
2019-01-26T15:09:05.791Z,25
2019-01-26T15:10:15.734Z,25
2019-01-26T15:11:26.183Z,25
2019-01-26T15:12:35.869Z,20
2019-01-26T15:13:45.832Z,20
2019-01-26T15:14:55.520Z,20
2019-01-26T15:16:04.959Z,20
2019-01-26T15:17:14.403Z,20
2019-01-26T15:18:24.350Z,20
2019-01-26T15:19:34.037Z,20
2019-01-26T15:20:44.001Z,20
2019-01-26T15:21:53.952Z,15
2019-01-26T15:23:03.655Z,15
2019-01-26T15:24:13.627Z,15
2019-01-26T15:25:23.343Z,15
2019-01-26T15:26:33.313Z,15
2019-01-26T15:27:43.026Z,15
2019-01-26T15:28:54.402Z,15
2019-01-26T15:30:04.203Z,10
2019-01-26T15:31:14.153Z,10
2019-01-26T15:32:23.852Z,10
2019-01-26T15:33:33.781Z,10
2019-01-26T15:34:43.479Z,5
2019-01-26T15:35:52.922Z,5
2019-01-26T15:37:02.629Z,5
2019-01-26T15:38:12.332Z,5
2019-01-26T15:39:22.270Z,5
2019-01-26T15:40:31.976Z,5
2019-01-26T15:41:41.917Z,5
2019-01-26T15:42:51.867Z,5
2019-01-26T15:44:01.816Z,5
2019-01-26T15:45:12.881Z,0
2019-01-26T15:46:22.816Z,0
2019-01-26T15:47:32.521Z,0
2019-01-26T15:48:42.474Z,0
2019-01-26T15:49:52.419Z,0
2019-01-26T15:51:02.374Z,0
2019-01-26T15:52:12.311Z,0
2019-01-26T15:53:21.774Z,0
2019-01-26T15:54:31.461Z,0
2019-01-26T15:55:41.418Z,0
2019-01-26T15:56:51.390Z,0
2019-01-26T15:58:01.340Z,0
2019-01-26T15:59:11.030Z,0
2019-01-26T16:00:20.721Z,0
2019-01-26T16:01:30.698Z,0
2019-01-26T16:02:40.407Z,0
2019-01-26T16:03:50.351Z,0
2019-01-26T16:05:00.293Z,0
2019-01-26T16:06:10.234Z,0
2019-01-26T16:07:19.922Z,0
2019-01-26T16:08:29.617Z,0
2019-01-26T16:09:39.569Z,0
2019-01-26T16:10:49.523Z,0
2019-01-26T16:11:59.213Z,0
2019-01-26T16:13:08.901Z,0
2019-01-26T16:14:18.834Z,0
2019-01-26T16:15:28.511Z,0
2019-01-26T16:16:38.197Z,0
2019-01-26T16:17:48.148Z,0
2019-01-26T16:18:58.100Z,0
2019-01-26T16:20:07.797Z,0
2019-01-26T16:21:17.482Z,0
2019-01-26T16:22:27.454Z,0
2019-01-26T16:23:37.130Z,0
2019-01-26T16:24:46.838Z,0
2019-01-26T16:25:56.784Z,0
2019-01-26T16:27:06.721Z,0
2019-01-26T16:28:16.664Z,0
2019-01-26T16:29:26.341Z,0
2019-01-26T16:30:36.024Z,0
2019-01-26T16:31:45.955Z,0
2019-01-26T16:32:55.899Z,0
2019-01-26T16:34:05.836Z,0
2019-01-26T16:35:15.786Z,0
2019-01-26T16:36:25.494Z,0
2019-01-26T16:37:35.447Z,0
2019-01-26T16:38:45.142Z,0
2019-01-26T16:39:55.081Z,0
2019-01-26T16:41:04.517Z,0
2019-01-26T16:42:14.467Z,0
2019-01-26T16:43:24.453Z,0
2019-01-26T16:44:34.598Z,0
2019-01-26T16:45:45.020Z,0